Tri-State/Milton J. Ferguson Field
KHTS : now visible

Airfield :











YOU CAN JOIN US ON...

 
LOGIN :

Register | Disclaimer

   EN    FR    IT 

 









Legend :    VFR   Marginal VFR   IFR   Intensive IFR   Very Intensive IFR
Visi :
Ceiling :
>= 8 km
>= 3000ft
5 to 8 km
1000 to 3000 ft
1500m to 5 km
500 to 1000 ft
800 to 1500m
200 to 500 ft
< 800m
< 200 ft
Symbols :   Thunderstorms  Fog  Heavy snow  Heavy precipitations  Wind > 20 kt






- Airport Elevation : 828 ft
- IATA code : HTS


KHTS - Tri-State/Milton J. Ferguson Field

CURRENT METAR :
  • 291451Z 03004KT 10SM FEW012 OVC027 01/M02 A3015 RMK AO2 SLP216 T00111022 51011

EXPIRED METARs :
  • 291351Z 03003KT 10SM OVC027 01/M03 A3015 RMK AO2 SLP216 T00061028
  • 291251Z 00000KT 10SM OVC027 01/M03 A3014 RMK AO2 SLP212 T00061028

TAF KHTS
Valid from the 29 at 15:00 until the 30 at 12:00 UTC


291503Z 2915/3012 VRB03KT P6SM OVC025
FM300600 00000KT P6SM BKN040



MET'MAP, your aeronautical weather chart ! - Copyright ORBIFLY December 2007 - Disclaimer

ORBIFLY MET'MAP TEAM :

Programming & Development : Alexandra Zaïnal
Concept & original design : Baudouin d'Aumeries
Assistance for programming : Marc-Olivier Méhu
Technical & hardware support : Manuel Goepfert

Contact : metmap@orbifly.com




SOURCES & CREDITS :

   NOAA       Earth
Advisory